Flight Track Log - Related Links

Times and Time Zones

All times are in EDT time to prevent confusion due to time zone crossing. See the UAL3741 flight status page for this flight to view local times or setup timezone preferences in your user account.

Time Position Orientation Groundspeed Altitude Reporting Facility
EDT Latitude Longitude Course Direction KTS MPH feet Rate Location/Type
Sat 07:10:35 PM 32.9000 -97.0333 348° North 148 170 1,200  Level Dallas / Fort Worth TRACON
Sat 07:11:48 PM 32.9667 -97.0333 360° North 225 259 3,600 2,321 Climbing Dallas / Fort Worth TRACON
Sat 07:14:00 PM 33.1302 -96.8000 North  Level FlightAware Approximate
Sat 07:14:07 PM 33.1208 -97.0017 10° North 251 289 9,400  Level Fort Worth Center
Sat 07:15:00 PM 33.2883 -96.8137 348° North  Level FlightAware Approximate
Sat 07:15:07 PM 33.1853 -96.9692 23° Northeast 272 313 11,400  Level Fort Worth Center
Sat 07:16:07 PM 33.2708 -96.9214 25° Northeast 291 335 14,100 2,300 Climbing Fort Worth Center
Sat 07:17:07 PM 33.3458 -96.8814 24° Northeast 307 353 16,000 1,650 Climbing Fort Worth Center
Sat 07:18:07 PM 33.4394 -96.8308 24° Northeast 324 373 17,400 1,200 Climbing Fort Worth Center
Sat 07:19:07 PM 33.5247 -96.7781 27° Northeast 355 409 18,400 1,050 Climbing Fort Worth Center
Sat 07:20:07 PM 33.6308 -96.7100 28° Northeast 383 441 19,500 1,100 Climbing Fort Worth Center
Sat 07:21:07 PM 33.7244 -96.6492 28° Northeast 402 463 20,600 1,350 Climbing Fort Worth Center
Sat 07:22:07 PM 33.8367 -96.5758 28° Northeast 413 475 22,200 1,400 Climbing Fort Worth Center
Sat 07:23:07 PM 33.9261 -96.5172 29° Northeast 413 475 23,400 1,350 Climbing Fort Worth Center
Sat 07:24:07 PM 34.0194 -96.4564 28° Northeast 418 481 24,900 1,400 Climbing Fort Worth Center
Sat 07:25:07 PM 34.1233 -96.3797 31° Northeast 406 467 26,200 1,250 Climbing Fort Worth Center
Sat 07:26:07 PM 34.2228 -96.2983 34° Northeast 413 475 27,400 1,200 Climbing Fort Worth Center
Sat 07:27:07 PM 34.3242 -96.2164 34° Northeast 423 487 28,600 1,200 Climbing Fort Worth Center
Sat 07:28:07 PM 34.4236 -96.1319 35° Northeast 423 487 29,800 1,200 Climbing Fort Worth Center
Sat 07:29:07 PM 34.5228 -96.0500 34° Northeast 423 487 31,000 1,100 Climbing Fort Worth Center
Sat 07:30:07 PM 34.6242 -95.9675 34° Northeast 423 487 32,000 1,000 Climbing Fort Worth Center
Sat 07:31:07 PM 34.7253 -95.8800 35° Northeast 434 499 33,000 1,000 Climbing Fort Worth Center
Sat 07:32:07 PM 34.8306 -95.7972 33° Northeast 434 499 34,000 1,000 Climbing Fort Worth Center
Sat 07:33:07 PM 34.9317 -95.7117 35° Northeast 439 505 35,000 1,050 Climbing Fort Worth Center
Sat 07:34:07 PM 35.0283 -95.6183 38° Northeast 439 505 36,100 1,000 Climbing Fort Worth Center
Sat 07:35:07 PM 35.1250 -95.5275 38° Northeast 439 505 37,000 358 Climbing Fort Worth Center
Sat 07:36:38 PM 35.2817 -95.3778 38° Northeast 450 518 37,000  Level Memphis Center
Sat 07:37:24 PM 35.3425 -95.3139 41° Northeast 448 516 37,000  Level Kansas City Center
Sat 07:38:25 PM 35.4406 -95.2214 38° Northeast 446 513 37,000  Level Kansas City Center
Sat 07:39:27 PM 35.5575 -95.1094 38° Northeast 445 512 37,000  Level Kansas City Center
Sat 07:40:28 PM 35.6556 -95.0158 38° Northeast 446 513 37,000  Level Kansas City Center
Sat 07:41:30 PM 35.7528 -94.9211 38° Northeast 448 516 37,000  Level Kansas City Center
Sat 07:42:31 PM 35.8497 -94.8278 38° Northeast 444 511 37,000  Level Kansas City Center
Sat 07:43:33 PM 35.9475 -94.7336 38° Northeast 445 512 37,000  Level Kansas City Center
Sat 07:44:38 PM 36.0586 -94.6242 39° Northeast 440 506 37,000  Level Memphis Center
Sat 07:45:36 PM 36.1394 -94.5467 38° Northeast 441 507 37,000  Level Kansas City Center
Sat 07:46:38 PM 36.2556 -94.4331 38° Northeast 442 509 37,000  Level Kansas City Center
Sat 07:47:39 PM 36.3508 -94.3394 38° Northeast 441 507 37,000  Level Kansas City Center
Sat 07:48:41 PM 36.4467 -94.2456 38° Northeast 440 506 37,000  Level Kansas City Center
Sat 07:49:42 PM 36.5428 -94.1514 38° Northeast 439 505 37,000  Level Kansas City Center
Sat 07:50:44 PM 36.6367 -94.0575 39° Northeast 435 501 37,000  Level Kansas City Center
Sat 07:51:45 PM 36.7322 -93.9642 38° Northeast 436 502 37,000  Level Kansas City Center
Sat 07:52:47 PM 36.8258 -93.8692 39° Northeast 434 499 37,000  Level Kansas City Center
Sat 07:53:48 PM 36.9344 -93.7589 39° Northeast 433 498 37,000  Level Kansas City Center
Sat 07:54:50 PM 37.0306 -93.6628 39° Northeast 439 505 37,000  Level Kansas City Center
Sat 07:55:51 PM 37.1272 -93.5661 39° Northeast 441 507 37,000  Level Kansas City Center
Sat 07:56:53 PM 37.2242 -93.4683 39° Northeast 445 512 37,000  Level Kansas City Center
Sat 07:57:54 PM 37.3219 -93.3703 39° Northeast 446 513 37,000  Level Kansas City Center
Sat 07:58:56 PM 37.4206 -93.2742 38° Northeast 446 513 37,000  Level Kansas City Center
Sat 07:59:57 PM 37.5208 -93.1817 36° Northeast 445 512 37,000  Level Kansas City Center
Sat 08:00:59 PM 37.6228 -93.0889 36° Northeast 447 514 37,000  Level Kansas City Center
Sat 08:02:00 PM 37.7236 -92.9956 36° Northeast 448 516 37,000  Level Kansas City Center
Sat 08:03:02 PM 37.8442 -92.8831 36° Northeast 446 513 37,000  Level Kansas City Center
Sat 08:04:03 PM 37.9447 -92.7894 36° Northeast 446 513 37,000  Level Kansas City Center
Sat 08:05:05 PM 38.0428 -92.6956 37° Northeast 448 516 37,000  Level Kansas City Center
Sat 08:06:06 PM 38.1414 -92.6031 36° Northeast 445 512 37,000  Level Kansas City Center
Sat 08:07:08 PM 38.2464 -92.5036 37° Northeast 443 510 37,000  Level Kansas City Center
Sat 08:08:09 PM 38.3450 -92.4083 37° Northeast 440 506 37,000  Level Kansas City Center
Sat 08:09:11 PM 38.4461 -92.3139 36° Northeast 444 511 37,000  Level Kansas City Center
Sat 08:10:12 PM 38.5456 -92.2178 37° Northeast 445 512 37,000  Level Kansas City Center
Sat 08:11:14 PM 38.6461 -92.1214 37° Northeast 447 514 37,000  Level Kansas City Center
Sat 08:12:15 PM 38.7464 -92.0242 37° Northeast 449 517 37,000  Level Kansas City Center
Sat 08:13:17 PM 38.8469 -91.9278 37° Northeast 450 518 37,000  Level Kansas City Center
Sat 08:14:18 PM 38.9483 -91.8292 37° Northeast 453 521 37,000  Level Kansas City Center
Sat 08:15:20 PM 39.0492 -91.7308 37° Northeast 454 522 37,000  Level Kansas City Center
Sat 08:16:22 PM 39.1592 -91.6236 37° Northeast 453 521 37,000 -341 Level Kansas City Center
Sat 08:17:23 PM 39.2592 -91.5261 37° Northeast 452 520 36,300 -976 Descending Kansas City Center
Sat 08:18:25 PM 39.3611 -91.4272 37° Northeast 456 525 35,000 -634 Descending Kansas City Center
Sat 08:19:26 PM 39.4608 -91.3275 38° Northeast 454 522 35,000  Level Kansas City Center
Sat 08:20:28 PM 39.5625 -91.2283 37° Northeast 455 524 35,000  Level Kansas City Center
Sat 08:21:29 PM 39.6856 -91.1044 38° Northeast 461 531 35,000  Level Kansas City Center
Sat 08:22:31 PM 39.7894 -91.0006 38° Northeast 467 537 35,000  Level Kansas City Center
Sat 08:23:32 PM 39.8922 -90.8956 38° Northeast 468 539 35,000 -439 Level Kansas City Center
Sat 08:24:34 PM 39.9950 -90.7917 38° Northeast 467 537 34,100 -927 Descending Kansas City Center
Sat 08:25:35 PM 40.0961 -90.6903 37° Northeast 462 532 33,100 -537 Descending Kansas City Center
Sat 08:26:37 PM 40.1981 -90.5864 38° Northeast 462 532 33,000 -49 Descending Kansas City Center
Sat 08:27:38 PM 40.2989 -90.4822 38° Northeast 462 532 33,000  Level Kansas City Center
Sat 08:28:40 PM 40.3992 -90.3739 39° Northeast 465 535 33,000  Level Kansas City Center
Sat 08:29:41 PM 40.4867 -90.2444 48° Northeast 471 542 33,000  Level Kansas City Center
Sat 08:30:43 PM 40.5839 -90.1028 48° Northeast 471 542 33,000 -682 Level Kansas City Center
Sat 08:31:53 PM 40.6975 -89.9383 48° Northeast 477 549 31,500 -1,636 Descending Chicago Center
Sat 08:32:55 PM 40.7800 -89.8033 51° Northeast 474 545 29,400 -2,032 Descending Chicago Center
Sat 08:33:57 PM 40.8683 -89.6808 46° Northeast 458 527 27,300 -2,049 Descending Chicago Center
Sat 08:34:58 PM 40.9514 -89.5594 48° Northeast 446 513 25,200 -1,610 Descending Chicago Center
Sat 08:36:00 PM 41.0247 -89.4503 48° Northeast 432 497 24,000 -1,756 Descending Chicago Center
Sat 08:37:01 PM 41.1161 -89.3133 48° Northeast 416 479 21,600 -2,293 Descending Chicago Center
Sat 08:38:03 PM 41.1886 -89.2053 48° Northeast 397 457 19,300 -2,323 Descending Chicago Center
Sat 08:39:05 PM 41.2600 -89.0947 49° Northeast 379 436 16,800 -2,195 Descending Chicago Center
Sat 08:40:06 PM 41.3214 -88.9986 50° Northeast 347 399 14,800 -1,951 Descending Chicago Center
Sat 08:41:08 PM 41.3817 -88.9086 48° Northeast 329 379 12,800 -1,355 Descending Chicago Center
Sat 08:42:10 PM 41.4372 -88.8225 49° Northeast 310 357 12,000 -537 Descending Chicago Center
Sat 08:43:11 PM 41.4886 -88.7433 49° Northeast 288 331 11,700 -488 Descending Chicago Center
Sat 08:44:13 PM 41.5317 -88.6569 56° Northeast 283 326 11,000 -339 Descending Chicago Center
Sat 08:45:15 PM 41.5681 -88.5644 62° Northeast 283 326 11,000 -195 Level Chicago Center
Sat 08:46:16 PM 41.5808 -88.4525 81° East 250 288 10,600 -927 Descending Chicago Center
Sat 08:47:18 PM 41.6008 -88.3697 72° East 240 276 9,100 -1,258 Descending Chicago Center
Sat 08:48:20 PM 41.6294 -88.2919 64° Northeast 236 272 8,000 -537 Descending Chicago Center
Sat 08:49:21 PM 41.6697 -88.2406 44° Northeast 203 234 8,000 -293 Level Chicago Center
Sat 08:50:23 PM 41.7094 -88.1911 43° Northeast 197 227 7,400 -968 Descending Chicago Center
Sat 08:51:25 PM 41.7453 -88.1444 44° Northeast 183 211 6,000 -1,073 Descending Chicago Center
Sat 08:52:26 PM 41.7797 -88.1047 41° Northeast 170 196 5,200 -927 Descending Chicago Center
Sat 08:53:28 PM 41.8189 -88.0578 42° Northeast 163 188 4,100 -927 Descending Chicago Center
Sat 08:54:29 PM 41.8517 -88.0200 41° Northeast 159 183 3,300 -780 Descending Chicago Center
Sat 08:55:31 PM 41.8825 -87.9836 41° Northeast 154 177 2,500 -778 Descending Chicago Center
Sat 08:56:17 PM 41.9000 -87.9500 55° Northeast 129 148 1,900 -720 Descending Chicago TRACON
Sat 08:57:11 PM 41.9333 -87.9333 20° North 115 132 1,300 -667 Descending Chicago TRACON
Sat 08:59:00 PM 41.9667 -87.9000 37° Northeast  Level FlightAware Approximate
Sat 09:06:00 PM 41.9817 -87.9067 37° Northeast  Level Estimated

Login

Don't have an account? Register now (free) for customized features, flight alerts, and more!